createdAt,value
2018-08-17T00:03:54.848Z,3.8
2018-08-17T00:09:55.726Z,5.41
2018-08-17T00:13:56.517Z,5.24
2018-08-17T00:15:57.292Z,3.81
2018-08-17T00:19:58.141Z,3.53
2018-08-17T00:25:59.014Z,4.02
2018-08-17T00:29:59.756Z,3.95
2018-08-17T00:36:00.777Z,6.09
2018-08-17T00:40:01.544Z,4.08
2018-08-17T00:42:02.232Z,4.11
2018-08-17T00:46:03.072Z,3.75
2018-08-17T00:52:03.789Z,4.17
2018-08-17T00:56:04.616Z,3.96
2018-08-17T01:02:05.478Z,4.08
2018-08-17T01:08:06.216Z,7.03
2018-08-17T01:12:06.908Z,3.78
2018-08-17T01:18:07.766Z,4.55
2018-08-17T01:22:08.405Z,4.28
2018-08-17T01:28:09.185Z,4.41
2018-08-17T01:34:13.860Z,3.78
2018-08-17T01:38:14.605Z,3.1
2018-08-17T01:44:15.361Z,3.96
2018-08-17T01:48:16.170Z,3.52
2018-08-17T01:54:16.886Z,4.27
2018-08-17T02:00:18.057Z,3.88
2018-08-17T02:04:18.960Z,4.37
2018-08-17T02:10:19.709Z,4.31
2018-08-17T02:14:20.484Z,4.24
2018-08-17T02:20:21.252Z,5.05
2018-08-17T02:26:22.153Z,4.16
2018-08-17T02:30:23.618Z,4.22
2018-08-17T02:36:24.341Z,4.38
2018-08-17T02:40:25.089Z,3.75
2018-08-17T02:46:25.893Z,4.77
2018-08-17T02:52:26.674Z,4.38
2018-08-17T02:56:27.472Z,4.61
2018-08-17T03:02:28.231Z,4.3
2018-08-17T03:06:29.074Z,3.34
2018-08-17T03:12:29.850Z,5.3
2018-08-17T03:18:30.661Z,4.17
2018-08-17T03:22:31.341Z,3.77
2018-08-17T03:28:32.446Z,4.89
2018-08-17T03:32:33.387Z,4.56
2018-08-17T03:38:34.159Z,3.73
2018-08-17T03:44:35.110Z,3.6
2018-08-17T03:48:35.876Z,3.64
2018-08-17T03:54:36.647Z,3.7
2018-08-17T03:58:37.382Z,4.33
2018-08-17T04:04:38.169Z,3.71
2018-08-17T04:10:39.483Z,4.01
2018-08-17T04:14:40.258Z,3.68
2018-08-17T04:20:41.070Z,4.68
2018-08-17T04:24:41.883Z,3.96
2018-08-17T04:26:42.680Z,4.48
2018-08-17T04:30:43.395Z,3.82
2018-08-17T04:36:44.204Z,4.15
2018-08-17T04:40:45.081Z,3.87
2018-08-17T04:46:45.827Z,4.99
2018-08-17T04:50:46.658Z,4.95
2018-08-17T04:52:47.330Z,5.05
2018-08-17T04:56:48.125Z,4.85
2018-08-17T05:02:48.854Z,5.64
2018-08-17T05:06:49.707Z,4.65
2018-08-17T05:12:50.557Z,5.79
2018-08-17T05:16:51.333Z,5.02
2018-08-17T05:18:51.978Z,4.9
2018-08-17T05:22:52.804Z,5.22
2018-08-17T05:28:53.542Z,4.85
2018-08-17T05:32:54.262Z,4.52
2018-08-17T05:38:55.075Z,5.29
2018-08-17T05:42:55.956Z,4.97
2018-08-17T05:44:56.727Z,5.87
2018-08-17T05:48:57.652Z,7.62
2018-08-17T05:54:58.462Z,6.76
2018-08-17T05:58:59.255Z,6.54
2018-08-17T06:05:00.021Z,4.69
2018-08-17T06:09:00.815Z,5.27
2018-08-17T06:11:01.682Z,5.17
2018-08-17T06:15:02.400Z,4.65
2018-08-17T06:21:03.170Z,4.41
2018-08-17T06:25:04.057Z,4.42
2018-08-17T06:31:04.823Z,6.01
2018-08-17T06:35:05.712Z,5.13
2018-08-17T06:37:06.518Z,4.39
2018-08-17T06:41:07.246Z,4.24
2018-08-17T06:47:08.006Z,4.61
2018-08-17T06:51:08.790Z,4.28
2018-08-17T06:57:09.582Z,4.9
2018-08-17T07:01:10.245Z,4.29
2018-08-17T07:03:10.961Z,4.29
2018-08-17T07:07:11.660Z,4.96
2018-08-17T07:13:12.547Z,4.56
2018-08-17T07:17:13.302Z,5.04
2018-08-17T07:23:14.163Z,4.28
2018-08-17T07:27:15.478Z,3.82
2018-08-17T07:29:16.206Z,3.76
2018-08-17T07:33:17.473Z,4.41
2018-08-17T07:39:18.298Z,4.67
2018-08-17T07:43:19.008Z,4.09
2018-08-17T07:49:19.776Z,5.01
2018-08-17T07:53:20.814Z,4.08
2018-08-17T07:55:21.579Z,3.75
2018-08-17T07:59:22.408Z,4.83
2018-08-17T08:05:23.184Z,3.92
2018-08-17T08:09:23.960Z,3.68
2018-08-17T08:15:25.060Z,4.28
2018-08-17T08:19:25.841Z,4.03
2018-08-17T08:21:26.616Z,4.2
2018-08-17T08:25:27.383Z,3.57
2018-08-17T08:31:28.163Z,4.57
2018-08-17T08:35:28.936Z,3.98
2018-08-17T08:41:29.678Z,4.04
2018-08-17T08:47:30.498Z,6.18
2018-08-17T08:51:31.230Z,3.82
2018-08-17T08:57:32.044Z,3.6
2018-08-17T09:01:32.848Z,6.61
2018-08-17T09:07:33.554Z,4.08
2018-08-17T09:13:34.245Z,5.11
2018-08-17T09:17:35.056Z,4.54
2018-08-17T09:23:35.790Z,3.39
2018-08-17T09:27:36.528Z,4.01
2018-08-17T09:33:37.318Z,3.25
2018-08-17T09:39:38.002Z,2.71
2018-08-17T09:43:38.713Z,2.76
2018-08-17T09:49:39.455Z,3.06
2018-08-17T09:53:40.216Z,4.72
2018-08-17T09:59:40.988Z,3.06
2018-08-17T10:05:41.795Z,2.78
2018-08-17T10:09:42.578Z,2.61
2018-08-17T10:15:43.437Z,2.64
2018-08-17T10:19:44.412Z,2.85
2018-08-17T10:25:45.117Z,3.51
2018-08-17T10:31:45.879Z,2.7
2018-08-17T10:35:46.628Z,2.89
2018-08-17T10:41:47.423Z,2.64
2018-08-17T10:45:48.251Z,2.49
2018-08-17T10:47:48.944Z,3.51
2018-08-17T10:51:49.731Z,3.31
2018-08-17T10:57:50.575Z,2.64
2018-08-17T11:01:51.287Z,2.33
2018-08-17T11:07:52.100Z,4.08
2018-08-17T11:11:52.816Z,2.6
2018-08-17T11:13:53.494Z,3.29
2018-08-17T11:17:54.321Z,2.28
2018-08-17T11:23:55.066Z,2.62
2018-08-17T11:27:55.797Z,2.85
2018-08-17T11:33:56.592Z,2.67
2018-08-17T11:37:57.278Z,3.1
2018-08-17T11:39:57.959Z,2.71
2018-08-17T11:43:58.743Z,2.98
2018-08-17T11:54:03.209Z,2.77
2018-08-17T11:54:03.391Z,3.15
2018-08-17T12:00:04.253Z,2.58
2018-08-17T12:04:06.386Z,2.7
2018-08-17T12:06:08.018Z,2.67
2018-08-17T12:10:08.797Z,2.32
2018-08-17T12:16:09.630Z,2.75
2018-08-17T12:20:10.327Z,3.79
2018-08-17T12:26:11.106Z,3.29
2018-08-17T12:30:12.287Z,2.18
2018-08-17T12:36:14.685Z,2.92
2018-08-17T12:36:14.797Z,2.87
2018-08-17T12:42:15.668Z,3.23
2018-08-17T12:46:16.534Z,2.66
2018-08-17T12:52:17.410Z,2.19
2018-08-17T12:56:18.112Z,2.77
2018-08-17T12:58:18.820Z,2.55
2018-08-17T13:02:19.612Z,2.51
2018-08-17T13:08:20.453Z,3.09
2018-08-17T13:12:21.275Z,2.46
2018-08-17T13:18:22.230Z,3.66
2018-08-17T13:22:23.051Z,2.4
2018-08-17T13:24:23.946Z,2.27
2018-08-17T13:28:24.746Z,2.22
2018-08-17T13:34:25.412Z,3.75
2018-08-17T13:38:26.202Z,4.09
2018-08-17T13:44:26.995Z,2.17
2018-08-17T13:50:27.912Z,2.62
2018-08-17T13:54:28.883Z,2.28
2018-08-17T14:00:30.027Z,2.12
2018-08-17T14:04:30.881Z,2.29
2018-08-17T14:10:31.616Z,2.3
2018-08-17T14:16:32.457Z,2.83
2018-08-17T14:20:33.255Z,2.69
2018-08-17T14:26:34.154Z,2.57
2018-08-17T14:30:35.560Z,2.53
2018-08-17T14:36:36.455Z,2.44
2018-08-17T14:42:37.522Z,2.11
2018-08-17T14:52:41.402Z,2.85
2018-08-17T14:52:41.639Z,2.36
2018-08-17T14:56:42.353Z,2.64
2018-08-17T15:02:43.747Z,1.93
2018-08-17T15:08:44.564Z,2.71
2018-08-17T15:12:45.479Z,1.93
2018-08-17T15:18:46.299Z,2.94
2018-08-17T15:22:47.244Z,2.43
2018-08-17T15:24:47.966Z,3.02
2018-08-17T15:28:48.685Z,3.46
2018-08-17T15:34:49.572Z,2.52
2018-08-17T15:38:50.337Z,2.61
2018-08-17T15:44:51.276Z,3.19
2018-08-17T15:48:52.041Z,2.56
2018-08-17T15:50:53.079Z,2.75
2018-08-17T15:54:53.999Z,2.9
2018-08-17T16:00:54.857Z,2.66
2018-08-17T16:04:55.898Z,3
2018-08-17T16:10:56.684Z,3.32
2018-08-17T16:14:57.806Z,2.86
2018-08-17T16:16:58.724Z,3.28
2018-08-17T16:20:59.489Z,2.86
2018-08-17T16:27:00.572Z,3.21
2018-08-17T16:31:07.308Z,3.47
2018-08-17T16:37:08.776Z,3.07
2018-08-17T16:41:09.707Z,3.88
2018-08-17T16:43:10.854Z,6.42
2018-08-17T16:47:11.811Z,4.87
2018-08-17T16:53:12.856Z,4.57
2018-08-17T16:57:13.670Z,3.44
2018-08-17T17:03:14.518Z,3.73
2018-08-17T17:07:15.316Z,3.24
2018-08-17T17:09:15.944Z,3.49
2018-08-17T17:13:16.837Z,3.14
2018-08-17T17:19:17.622Z,3.46
2018-08-17T17:23:18.327Z,3.75
2018-08-17T17:29:19.095Z,3.79
2018-08-17T17:33:19.841Z,3.92
2018-08-17T17:35:20.637Z,6.31
2018-08-17T17:39:21.331Z,3.88
2018-08-17T17:45:22.507Z,4.21
2018-08-17T17:49:23.218Z,3.62
2018-08-17T17:55:23.893Z,4.11
2018-08-17T17:59:24.615Z,3.62
2018-08-17T18:01:25.364Z,4.33
2018-08-17T18:05:26.162Z,3.92
2018-08-17T18:11:26.866Z,3.92
2018-08-17T18:15:28.097Z,4.35
2018-08-17T18:21:28.965Z,3.76
2018-08-17T18:27:29.746Z,4.4
2018-08-17T18:31:30.480Z,4.45
2018-08-17T18:37:31.205Z,4.16
2018-08-17T18:41:31.881Z,5.31
2018-08-17T18:47:32.631Z,4.64
2018-08-17T18:53:33.459Z,3.98
2018-08-17T18:57:34.366Z,3.92
2018-08-17T19:03:35.170Z,6.31
2018-08-17T19:07:35.920Z,7.77
2018-08-17T19:13:36.639Z,5.98
2018-08-17T19:19:37.517Z,7.03
2018-08-17T19:23:38.279Z,7.18
2018-08-17T19:29:39.042Z,6.05
2018-08-17T19:33:39.846Z,6.36
2018-08-17T19:39:40.600Z,6.41
2018-08-17T19:45:41.431Z,6.09
2018-08-17T19:49:42.281Z,5.73
2018-08-17T19:55:43.147Z,6.99
2018-08-17T19:59:44.029Z,6.99
2018-08-17T20:01:44.723Z,5.97
2018-08-17T20:05:45.658Z,4.84
2018-08-17T20:11:46.414Z,3.7
2018-08-17T20:15:47.149Z,3.75
2018-08-17T20:21:47.890Z,6.8
2018-08-17T20:25:48.916Z,6.81
2018-08-17T20:27:49.689Z,5.02
2018-08-17T20:31:50.557Z,4.19
2018-08-17T20:37:51.212Z,3.95
2018-08-17T20:41:51.966Z,3.83
2018-08-17T20:47:52.786Z,4.04
2018-08-17T20:51:53.525Z,4.64
2018-08-17T20:53:55.380Z,4.26
2018-08-17T20:57:56.024Z,4.41
2018-08-17T21:03:56.902Z,6.51
2018-08-17T21:07:57.690Z,5.78
2018-08-17T21:13:58.445Z,4.04
2018-08-17T21:17:59.379Z,3.94
2018-08-17T21:20:00.026Z,3.79
2018-08-17T21:24:00.813Z,3.56
2018-08-17T21:30:01.506Z,3.98
2018-08-17T21:34:02.302Z,3.81
2018-08-17T21:40:03.008Z,4.14
2018-08-17T21:44:03.719Z,3.74
2018-08-17T21:46:04.447Z,7.15
2018-08-17T21:50:05.081Z,4.36
2018-08-17T21:56:05.940Z,4.62
2018-08-17T22:00:06.672Z,3.9
2018-08-17T22:06:07.514Z,5.04
2018-08-17T22:12:08.645Z,4.73
2018-08-17T22:16:09.840Z,4.3
2018-08-17T22:22:10.618Z,6.02
2018-08-17T22:26:11.651Z,4.63
2018-08-17T22:32:12.399Z,5.2
2018-08-17T22:38:13.313Z,4.78
2018-08-17T22:42:14.145Z,4.52
2018-08-17T22:48:14.994Z,4.25
2018-08-17T22:52:15.670Z,4.01
2018-08-17T22:58:16.453Z,4.43
2018-08-17T23:04:17.320Z,4.36
2018-08-17T23:08:18.216Z,4.56
2018-08-17T23:14:19.037Z,4.6
2018-08-17T23:18:19.855Z,3.95
2018-08-17T23:24:20.463Z,5.35
2018-08-17T23:30:21.427Z,4.36
2018-08-17T23:34:22.187Z,4.01
2018-08-17T23:40:22.993Z,4.05
2018-08-17T23:44:23.740Z,4.09
2018-08-17T23:50:24.495Z,4.22
2018-08-17T23:56:25.249Z,3.84
